createdAt,value
2022-10-11T00:01:26.103Z,63.27
2022-10-11T00:04:13.984Z,60.62
2022-10-11T00:07:01.800Z,58.88
2022-10-11T00:09:49.538Z,61.37
2022-10-11T00:12:37.405Z,63.43
2022-10-11T00:15:25.850Z,62.16
2022-10-11T00:18:13.819Z,59.36
2022-10-11T00:21:08.775Z,59.20
2022-10-11T00:23:56.977Z,61.27
2022-10-11T00:26:46.937Z,63.55
2022-10-11T00:29:35.469Z,61.88
2022-10-11T00:32:23.606Z,59.68
2022-10-11T00:35:11.603Z,59.04
2022-10-11T00:37:59.849Z,61.39
2022-10-11T00:40:47.840Z,64.17
2022-10-11T00:43:36.697Z,63.28
2022-10-11T00:46:29.700Z,62.06
2022-10-11T00:49:49.313Z,59.09
2022-10-11T00:52:50.245Z,61.82
2022-10-11T00:55:48.536Z,63.77
2022-10-11T00:58:38.642Z,62.45
2022-10-11T01:01:27.348Z,60.07
2022-10-11T01:04:15.534Z,59.96
2022-10-11T01:07:03.855Z,62.05
2022-10-11T01:09:51.966Z,63.95
2022-10-11T01:13:15.945Z,61.73
2022-10-11T01:16:32.221Z,60.36
2022-10-11T01:19:44.567Z,58.72
2022-10-11T01:23:16.947Z,59.99
2022-10-11T01:27:05.643Z,63.72
2022-10-11T01:30:19.266Z,64.34
2022-10-11T01:33:45.077Z,62.07
2022-10-11T01:36:50.026Z,60.41
2022-10-11T01:39:47.776Z,57.96
2022-10-11T01:42:40.315Z,61.12
2022-10-11T01:45:28.320Z,64.04
2022-10-11T01:48:16.313Z,63.42
2022-10-11T01:51:04.552Z,62.78
2022-10-11T01:54:20.965Z,59.92
2022-10-11T01:57:41.118Z,59.36
2022-10-11T02:01:08.512Z,63.43
2022-10-11T02:04:14.150Z,63.78
2022-10-11T02:07:20.747Z,61.84
2022-10-11T02:10:36.991Z,61.89
2022-10-11T02:13:54.633Z,58.41
2022-10-11T02:16:48.718Z,58.05
2022-10-11T02:19:44.528Z,61.65
2022-10-11T02:22:39.412Z,67.24
2022-10-11T02:25:32.617Z,64.97
2022-10-11T02:28:30.496Z,61.53
2022-10-11T02:31:20.847Z,59.51
2022-10-11T02:34:14.253Z,59.22
2022-10-11T02:37:35.460Z,62.51
2022-10-11T02:40:45.065Z,65.58
2022-10-11T02:43:40.014Z,65.34
2022-10-11T02:46:30.658Z,64.19
2022-10-11T02:49:20.032Z,63.15
2022-10-11T02:52:07.874Z,62.27
2022-10-11T02:54:55.672Z,61.30
2022-10-11T02:57:43.795Z,59.52
2022-10-11T03:00:31.868Z,59.44
2022-10-11T03:03:20.189Z,63.57
2022-10-11T03:06:09.463Z,65.43
2022-10-11T03:08:57.132Z,62.19
2022-10-11T03:11:45.328Z,62.02
2022-10-11T03:14:33.477Z,61.52
2022-10-11T03:17:36.043Z,61.26
2022-10-11T03:20:25.270Z,60.72
2022-10-11T03:23:13.419Z,59.78
2022-10-11T03:26:01.619Z,62.73
2022-10-11T03:28:50.119Z,63.25
2022-10-11T03:31:38.098Z,61.81
2022-10-11T03:34:26.087Z,60.43
2022-10-11T03:37:14.369Z,61.35
2022-10-11T03:40:03.924Z,59.36
2022-10-11T03:42:51.744Z,58.89
2022-10-11T03:45:42.482Z,60.47
2022-10-11T03:48:30.298Z,64.34
2022-10-11T03:51:18.327Z,64.29
2022-10-11T03:54:06.579Z,61.95
2022-10-11T03:56:54.419Z,60.76
2022-10-11T03:59:42.704Z,60.57
2022-10-11T04:02:31.673Z,58.66
2022-10-11T04:05:21.681Z,60.28
2022-10-11T04:08:12.124Z,63.61
2022-10-11T04:11:00.784Z,64.09
2022-10-11T04:13:49.003Z,61.63
2022-10-11T04:16:38.870Z,60.23
2022-10-11T04:19:26.931Z,59.39
2022-10-11T04:22:14.757Z,60.29
2022-10-11T04:25:02.791Z,63.37
2022-10-11T04:27:51.123Z,63.57
2022-10-11T04:30:38.898Z,60.78
2022-10-11T04:33:27.219Z,60.13
2022-10-11T04:36:15.426Z,59.10
2022-10-11T04:39:04.137Z,60.23
2022-10-11T04:41:52.485Z,63.05
2022-10-11T04:44:40.709Z,63.00
2022-10-11T04:47:28.737Z,62.29
2022-10-11T04:50:16.756Z,61.05
2022-10-11T04:53:04.768Z,58.63
2022-10-11T04:56:07.823Z,59.67
2022-10-11T04:58:56.595Z,63.77
2022-10-11T05:01:44.955Z,64.47
2022-10-11T05:04:33.087Z,61.54
2022-10-11T05:07:21.150Z,61.96
2022-10-11T05:10:10.208Z,60.14
2022-10-11T05:12:57.981Z,58.07
2022-10-11T05:15:45.997Z,60.11
2022-10-11T05:18:34.013Z,63.48
2022-10-11T05:21:28.979Z,63.04
2022-10-11T05:24:16.487Z,61.00
2022-10-11T05:27:04.524Z,60.79
2022-10-11T05:29:52.179Z,58.95
2022-10-11T05:32:39.873Z,60.33
2022-10-11T05:35:28.064Z,62.88
2022-10-11T05:38:16.776Z,62.92
2022-10-11T05:41:05.904Z,61.64
2022-10-11T05:43:53.881Z,59.49
2022-10-11T05:46:44.676Z,58.68
2022-10-11T05:49:32.617Z,60.35
2022-10-11T05:52:21.691Z,63.55
2022-10-11T05:55:09.797Z,63.78
2022-10-11T05:57:58.109Z,61.21
2022-10-11T06:00:48.403Z,60.08
2022-10-11T06:03:36.543Z,58.44
2022-10-11T06:06:24.626Z,59.31
2022-10-11T06:09:12.979Z,62.82
2022-10-11T06:12:01.154Z,62.63
2022-10-11T06:14:49.001Z,60.63
2022-10-11T06:17:37.850Z,58.78
2022-10-11T06:20:27.146Z,61.17
2022-10-11T06:23:14.870Z,63.14
2022-10-11T06:26:07.984Z,62.92
2022-10-11T06:28:57.398Z,60.39
2022-10-11T06:31:45.931Z,58.89
2022-10-11T06:34:33.636Z,61.33
2022-10-11T06:37:21.388Z,63.42
2022-10-11T06:40:10.427Z,62.18
2022-10-11T06:42:58.046Z,60.52
2022-10-11T06:45:46.257Z,59.03
2022-10-11T06:48:34.869Z,60.09
2022-10-11T06:51:23.688Z,63.58
2022-10-11T06:54:11.571Z,60.68
2022-10-11T06:57:00.151Z,55.01
2022-10-11T06:59:48.127Z,54.16
2022-10-11T07:02:35.915Z,52.35
2022-10-11T07:05:23.589Z,52.04
2022-10-11T07:08:11.981Z,49.74
2022-10-11T07:11:12.787Z,47.79
2022-10-11T07:14:07.618Z,45.79
2022-10-11T07:16:55.957Z,44.47
2022-10-11T07:19:43.775Z,42.62
2022-10-11T07:22:31.770Z,41.49
2022-10-11T07:25:19.839Z,40.65
2022-10-11T07:28:07.852Z,40.94
2022-10-11T07:30:56.206Z,39.71
2022-10-11T07:33:44.046Z,40.01
2022-10-11T07:36:32.077Z,39.89
2022-10-11T07:39:19.956Z,39.26
2022-10-11T07:42:10.049Z,38.60
2022-10-11T07:44:58.021Z,37.31
2022-10-11T07:47:46.797Z,35.02
2022-10-11T07:50:35.570Z,35.47
2022-10-11T07:53:23.589Z,35.24
2022-10-11T07:56:14.247Z,33.19
2022-10-11T07:59:06.453Z,32.77
2022-10-11T08:01:54.259Z,32.15
2022-10-11T08:04:42.237Z,30.57
2022-10-11T08:07:33.305Z,30.75
2022-10-11T08:10:40.487Z,30.66
2022-10-11T08:13:28.969Z,29.73
2022-10-11T08:16:17.167Z,28.51
2022-10-11T08:19:06.711Z,29.01
2022-10-11T08:21:54.455Z,28.11
2022-10-11T08:24:42.276Z,28.20
2022-10-11T08:27:30.111Z,27.87
2022-10-11T08:30:18.851Z,27.42
2022-10-11T08:33:08.696Z,27.85
2022-10-11T08:35:57.487Z,28.33
2022-10-11T08:38:45.581Z,28.07
2022-10-11T08:41:58.692Z,26.96
2022-10-11T08:45:16.951Z,26.13
2022-10-11T08:48:19.228Z,27.20
2022-10-11T08:51:32.367Z,27.64
2022-10-11T08:54:39.293Z,27.06
2022-10-11T08:57:32.171Z,27.22
2022-10-11T09:00:21.809Z,27.31
2022-10-11T09:03:37.239Z,26.91
2022-10-11T09:07:04.713Z,26.45
2022-10-11T09:10:20.768Z,27.63
2022-10-11T09:13:31.651Z,29.91
2022-10-11T09:16:39.434Z,32.31
2022-10-11T09:19:58.339Z,34.77
2022-10-11T09:22:57.941Z,36.52
2022-10-11T09:26:11.689Z,35.27
2022-10-11T09:29:46.315Z,34.81
2022-10-11T09:32:46.011Z,33.79
2022-10-11T09:35:41.254Z,32.53
2022-10-11T09:38:56.708Z,30.48
2022-10-11T09:41:59.056Z,29.51
2022-10-11T09:44:51.398Z,28.73
2022-10-11T09:47:39.332Z,27.01
2022-10-11T09:50:30.032Z,25.51
2022-10-11T09:53:17.863Z,26.02
2022-10-11T09:56:06.834Z,26.14
2022-10-11T09:59:34.709Z,25.75
2022-10-11T10:02:24.607Z,24.15
2022-10-11T10:05:26.568Z,23.76
2022-10-11T10:08:25.422Z,23.61
2022-10-11T10:11:14.861Z,22.60
2022-10-11T10:14:02.846Z,22.05
2022-10-11T10:17:01.634Z,21.00
2022-10-11T10:19:55.652Z,20.87
2022-10-11T10:22:47.378Z,21.26
2022-10-11T10:25:43.289Z,20.98
2022-10-11T10:28:31.466Z,20.86
2022-10-11T10:31:49.580Z,20.30
2022-10-11T10:35:19.367Z,20.49
2022-10-11T10:38:52.004Z,20.37
2022-10-11T10:41:40.702Z,21.01
2022-10-11T10:44:28.821Z,20.64
2022-10-11T10:47:57.512Z,20.32
2022-10-11T10:51:10.578Z,22.05
2022-10-11T10:54:42.846Z,24.15
2022-10-11T10:57:48.413Z,26.79
2022-10-11T11:01:00.918Z,26.92
2022-10-11T11:03:55.024Z,27.59
2022-10-11T11:07:19.796Z,27.98
2022-10-11T11:10:21.172Z,27.84
2022-10-11T11:13:25.661Z,28.29
2022-10-11T11:16:34.137Z,29.35
2022-10-11T11:20:02.762Z,30.77
2022-10-11T11:23:33.206Z,32.24
2022-10-11T11:27:01.324Z,33.39
2022-10-11T11:30:01.222Z,35.41
2022-10-11T11:33:17.835Z,36.02
2022-10-11T11:36:43.598Z,36.74
2022-10-11T11:39:56.441Z,37.58
2022-10-11T11:43:27.122Z,37.89
2022-10-11T11:46:24.517Z,36.96
2022-10-11T11:49:25.603Z,35.79
2022-10-11T11:53:08.181Z,34.41
2022-10-11T11:56:25.894Z,33.02
2022-10-11T11:59:25.127Z,32.13
2022-10-11T12:02:49.115Z,31.19
2022-10-11T12:05:37.390Z,30.33
2022-10-11T12:08:31.297Z,30.62
2022-10-11T12:11:38.299Z,31.73
2022-10-11T12:14:28.975Z,33.26
2022-10-11T12:17:23.069Z,34.37
2022-10-11T12:20:25.664Z,35.20
2022-10-11T12:23:28.442Z,35.50
2022-10-11T12:26:28.139Z,35.50
2022-10-11T12:29:18.794Z,35.63
2022-10-11T12:32:06.819Z,36.08
2022-10-11T12:35:32.665Z,37.04
2022-10-11T12:38:29.591Z,38.16
2022-10-11T12:41:18.392Z,38.67
2022-10-11T12:44:18.810Z,39.44
2022-10-11T12:47:36.946Z,40.21
2022-10-11T12:51:14.506Z,40.25
2022-10-11T12:54:43.863Z,40.56
2022-10-11T12:58:08.881Z,40.26
2022-10-11T13:00:56.531Z,40.54
2022-10-11T13:04:05.364Z,40.38
2022-10-11T13:07:06.865Z,40.61
2022-10-11T13:09:55.475Z,40.86
2022-10-11T13:12:47.249Z,41.12
2022-10-11T13:15:35.443Z,41.46
2022-10-11T13:18:26.464Z,42.05
2022-10-11T13:21:39.731Z,42.57
2022-10-11T13:24:39.398Z,43.70
2022-10-11T13:27:27.990Z,44.87
2022-10-11T13:30:30.666Z,45.77
2022-10-11T13:33:32.507Z,46.28
2022-10-11T13:36:19.844Z,46.86
2022-10-11T13:39:08.093Z,47.70
2022-10-11T13:41:57.581Z,48.45
2022-10-11T13:44:47.200Z,48.78
2022-10-11T13:47:35.649Z,49.22
2022-10-11T13:50:33.689Z,49.71
2022-10-11T13:53:25.571Z,49.32
2022-10-11T13:56:19.669Z,49.53
2022-10-11T13:59:07.954Z,49.71
2022-10-11T14:02:01.453Z,50.77
2022-10-11T14:04:50.054Z,50.33
2022-10-11T14:07:39.298Z,50.19
2022-10-11T14:10:28.443Z,50.29
2022-10-11T14:13:35.864Z,51.19
2022-10-11T14:16:23.176Z,51.54
2022-10-11T14:19:11.533Z,51.86
2022-10-11T14:21:59.482Z,51.91
2022-10-11T14:24:48.370Z,52.65
2022-10-11T14:27:37.446Z,53.35
2022-10-11T14:30:27.815Z,53.58
2022-10-11T14:33:15.550Z,54.35
2022-10-11T14:36:04.468Z,54.75
2022-10-11T14:38:53.816Z,55.40
2022-10-11T14:41:42.765Z,55.94
2022-10-11T14:44:30.480Z,56.16
2022-10-11T14:47:18.710Z,56.88
2022-10-11T14:50:29.302Z,57.15
2022-10-11T14:53:17.739Z,57.46
2022-10-11T14:56:06.380Z,57.86
2022-10-11T14:58:54.307Z,57.77
2022-10-11T15:01:42.808Z,58.11
2022-10-11T15:04:31.062Z,58.42
2022-10-11T15:07:18.513Z,58.99
2022-10-11T15:10:38.836Z,59.15
2022-10-11T15:13:26.424Z,59.45
2022-10-11T15:16:19.043Z,60.20
2022-10-11T15:19:11.165Z,60.82
2022-10-11T15:21:58.943Z,58.88
2022-10-11T15:24:51.380Z,57.20
2022-10-11T15:27:39.817Z,58.60
2022-10-11T15:30:38.507Z,59.71
2022-10-11T15:33:28.973Z,60.35
2022-10-11T15:36:22.786Z,61.57
2022-10-11T15:39:30.729Z,62.66
2022-10-11T15:42:18.612Z,63.73
2022-10-11T15:45:06.630Z,57.06
2022-10-11T15:47:54.785Z,56.84
2022-10-11T15:50:43.196Z,59.50
2022-10-11T15:53:31.518Z,61.53
2022-10-11T15:56:20.149Z,62.11
2022-10-11T15:59:11.778Z,61.06
2022-10-11T16:01:59.588Z,57.28
2022-10-11T16:04:47.456Z,56.85
2022-10-11T16:07:35.571Z,59.26
2022-10-11T16:10:23.300Z,60.89
2022-10-11T16:13:12.249Z,62.56
2022-10-11T16:16:07.306Z,61.59
2022-10-11T16:18:55.615Z,58.44
2022-10-11T16:21:43.467Z,59.00
2022-10-11T16:24:31.319Z,60.37
2022-10-11T16:27:19.993Z,61.67
2022-10-11T16:30:11.914Z,64.69
2022-10-11T16:32:59.585Z,63.08
2022-10-11T16:35:47.057Z,62.13
2022-10-11T16:38:34.619Z,59.36
2022-10-11T16:41:22.397Z,58.69
2022-10-11T16:44:20.149Z,59.72
2022-10-11T16:47:07.972Z,61.37
2022-10-11T16:49:55.985Z,63.73
2022-10-11T16:52:43.819Z,63.69
2022-10-11T16:55:31.839Z,63.59
2022-10-11T16:58:19.872Z,60.91
2022-10-11T17:01:10.351Z,56.46
2022-10-11T17:03:58.315Z,56.89
2022-10-11T17:06:46.171Z,59.05
2022-10-11T17:09:33.792Z,60.43
2022-10-11T17:12:24.218Z,63.53
2022-10-11T17:15:12.771Z,64.59
2022-10-11T17:18:00.567Z,62.20
2022-10-11T17:20:48.984Z,62.83
2022-10-11T17:23:36.862Z,59.50
2022-10-11T17:26:28.294Z,55.66
2022-10-11T17:29:21.649Z,58.06
2022-10-11T17:32:19.207Z,60.34
2022-10-11T17:35:11.685Z,64.43
2022-10-11T17:38:05.724Z,65.23
2022-10-11T17:41:14.604Z,63.21
2022-10-11T17:44:03.336Z,59.58
2022-10-11T17:46:51.259Z,58.84
2022-10-11T17:49:38.950Z,61.12
2022-10-11T17:52:26.846Z,64.03
2022-10-11T17:55:15.782Z,64.52
2022-10-11T17:58:07.295Z,60.99
2022-10-11T18:00:55.252Z,58.80
2022-10-11T18:03:43.754Z,60.59
2022-10-11T18:06:39.184Z,64.74
2022-10-11T18:09:27.324Z,64.61
2022-10-11T18:12:14.798Z,63.79
2022-10-11T18:15:02.902Z,60.68
2022-10-11T18:17:50.977Z,58.62
2022-10-11T18:20:38.730Z,59.51
2022-10-11T18:23:29.609Z,62.29
2022-10-11T18:26:22.223Z,65.15
2022-10-11T18:29:14.649Z,63.08
2022-10-11T18:32:27.165Z,60.58
2022-10-11T18:35:15.212Z,58.11
2022-10-11T18:38:03.928Z,59.35
2022-10-11T18:40:51.623Z,62.21
2022-10-11T18:43:39.689Z,67.17
2022-10-11T18:46:28.737Z,66.03
2022-10-11T18:49:16.754Z,63.65
2022-10-11T18:52:04.326Z,59.32
2022-10-11T18:54:52.412Z,60.29
2022-10-11T18:57:40.764Z,61.86
2022-10-11T19:00:40.680Z,65.42
2022-10-11T19:03:32.714Z,64.63
2022-10-11T19:06:38.564Z,62.61
2022-10-11T19:09:26.747Z,64.20
2022-10-11T19:12:15.782Z,60.63
2022-10-11T19:15:03.830Z,58.43
2022-10-11T19:17:51.718Z,61.95
2022-10-11T19:20:39.520Z,62.90
2022-10-11T19:23:27.669Z,61.83
2022-10-11T19:26:32.707Z,61.34
2022-10-11T19:29:26.770Z,59.51
2022-10-11T19:32:14.989Z,58.28
2022-10-11T19:35:02.977Z,59.89
2022-10-11T19:37:50.964Z,63.04
2022-10-11T19:40:38.649Z,65.26
2022-10-11T19:43:26.315Z,62.80
2022-10-11T19:46:38.080Z,63.87
2022-10-11T19:49:26.242Z,58.65
2022-10-11T19:52:14.275Z,59.96
2022-10-11T19:55:02.116Z,63.22
2022-10-11T19:57:49.933Z,64.47
2022-10-11T20:00:37.543Z,62.68
2022-10-11T20:03:25.597Z,61.86
2022-10-11T20:06:15.088Z,61.61
2022-10-11T20:09:29.547Z,59.90
2022-10-11T20:12:17.873Z,59.34
2022-10-11T20:15:06.607Z,61.85
2022-10-11T20:17:54.542Z,66.07
2022-10-11T20:20:53.228Z,64.54
2022-10-11T20:23:44.544Z,61.62
2022-10-11T20:26:33.362Z,61.21
2022-10-11T20:29:21.079Z,62.44
2022-10-11T20:32:08.755Z,59.18
2022-10-11T20:34:56.520Z,60.16
2022-10-11T20:37:44.913Z,62.88
2022-10-11T20:40:40.730Z,64.51
2022-10-11T20:43:28.363Z,63.51
2022-10-11T20:46:19.924Z,63.97
2022-10-11T20:49:11.345Z,63.31
2022-10-11T20:51:59.245Z,62.69
2022-10-11T20:54:46.914Z,61.95
2022-10-11T20:57:34.786Z,60.53
2022-10-11T21:00:23.282Z,58.22
2022-10-11T21:03:11.333Z,58.37
2022-10-11T21:06:01.763Z,60.46
2022-10-11T21:08:49.746Z,64.33
2022-10-11T21:11:37.738Z,66.35
2022-10-11T21:14:25.381Z,64.10
2022-10-11T21:17:13.063Z,63.70
2022-10-11T21:20:03.667Z,62.75
2022-10-11T21:22:51.296Z,61.64
2022-10-11T21:25:40.841Z,61.06
2022-10-11T21:28:29.209Z,60.34
2022-10-11T21:31:20.514Z,60.20
2022-10-11T21:34:07.948Z,57.26
2022-10-11T21:36:55.906Z,58.99
2022-10-11T21:39:43.642Z,61.08
2022-10-11T21:42:31.542Z,64.31
2022-10-11T21:45:20.643Z,66.96
2022-10-11T21:48:11.922Z,65.08
2022-10-11T21:51:32.455Z,63.66
2022-10-11T21:54:22.679Z,63.09
2022-10-11T21:57:10.495Z,62.22
2022-10-11T21:59:58.416Z,58.63
2022-10-11T22:02:45.860Z,58.11
2022-10-11T22:05:33.542Z,60.72
2022-10-11T22:08:21.310Z,64.64
2022-10-11T22:11:10.988Z,65.25
2022-10-11T22:13:58.839Z,65.10
2022-10-11T22:16:46.581Z,62.40
2022-10-11T22:19:34.587Z,62.45
2022-10-11T22:22:22.383Z,60.81
2022-10-11T22:25:10.352Z,62.25
2022-10-11T22:27:58.227Z,61.94
2022-10-11T22:30:46.016Z,60.88
2022-10-11T22:33:34.964Z,60.87
2022-10-11T22:36:24.588Z,60.62
2022-10-11T22:39:12.180Z,58.31
2022-10-11T22:41:59.990Z,59.46
2022-10-11T22:44:49.642Z,63.53
2022-10-11T22:47:37.909Z,66.74
2022-10-11T22:50:25.782Z,63.27
2022-10-11T22:53:14.743Z,62.05
2022-10-11T22:56:02.485Z,60.37
2022-10-11T22:58:50.479Z,61.95
2022-10-11T23:01:38.407Z,61.90
2022-10-11T23:04:26.556Z,61.36
2022-10-11T23:07:14.230Z,60.80
2022-10-11T23:10:02.097Z,58.84
2022-10-11T23:12:49.903Z,58.46
2022-10-11T23:15:41.149Z,59.66
2022-10-11T23:18:28.770Z,63.40
2022-10-11T23:21:16.638Z,66.56
2022-10-11T23:24:05.519Z,65.70
2022-10-11T23:26:57.079Z,63.97
2022-10-11T23:29:50.411Z,62.29
2022-10-11T23:32:40.069Z,61.91
2022-10-11T23:35:27.690Z,61.17
2022-10-11T23:38:15.554Z,59.07
2022-10-11T23:41:03.598Z,58.96
2022-10-11T23:43:51.985Z,62.98
2022-10-11T23:46:39.933Z,63.97
2022-10-11T23:49:30.299Z,62.65
2022-10-11T23:52:18.167Z,62.82
2022-10-11T23:55:06.208Z,61.43
2022-10-11T23:57:54.021Z,60.61
